METAR AND TAF INFORMATION
METAR FOR FABL
ADDS - METARS form results

(0659 UTC 25 August 2019)
Data provider http://aviationweather.gov/metar/data/
 
METAR text: FABL 250648Z VRB02KT CAVOK 13/M04 Q1028 NOSIG
Conditions at: FABL (BLOEMFONTEIN/HER, ZA) observed 0648 UTC 25 August 2019
Temperature: 13.0°C (55°F)
Dewpoint: -4.0°C (25°F) [RH = 30%]
Pressure (altimeter): 30.35 inches Hg (1028.0 mb)
Winds: variable direction winds at 2 MPH (2 knots; 1.0 m/s)
Visibility: 6 or more miles (10+ km)
Ceiling: ceiling and visibility are OK
Clouds: unknown
Weather: no significant weather observed at this time

METAR text: FABL 250600Z AUTO 00000KT //// // ////// 09/M04 Q1027
Conditions at: FABL (BLOEMFONTEIN/HER, ZA) observed 0600 UTC 25 August 2019
Temperature: 9.0°C (48°F)
Dewpoint: -4.0°C (25°F) [RH = 40%]
Pressure (altimeter): 30.32 inches Hg (1027.0 mb)
Winds: calm
Visibility: missing
Ceiling: unknown
Clouds: missing
Weather: no significant weather observed at this time

Forecast for: FABL (BLOEMFONTEIN/HER, ZA)
Text: TAF FABL 250400Z 2506/2606 VRB03KT CAVOK TX27/2513Z TN03/2604Z
Forecast period: 0600 UTC 25 August 2019 to 0600 UTC 26 August 2019
Forecast type: FROM: standard forecast or significant change
Winds: variable direction winds at 3 MPH (3 knots; 1.5 m/s)
Visibility: 6 or more miles 10+ km)
Ceiling: unknown
Clouds: missing
Weather: no significant weather forecast for this period

 AIRPORT MAP

 RUNWAY INFORMATION
Runway 02 Runway length 8396 ft Runway width 151 ft
Runway elevation 4413 ft Runway displaced threshold 0 ft Runway heading 360
Runway 20 Runway length 8396 ft Runway width 151 ft
Runway elevation 4421 ft Runway displaced threshold 0 ft Runway heading 180
Runway 12 Runway length 7202 ft Runway width 151 ft
Runway elevation 4457 ft Runway displaced threshold 0 ft Runway heading 102
Runway 30 Runway length 7202 ft Runway width 151 ft
Runway elevation 4413 ft Runway displaced threshold 0 ft Runway heading 282

 AIRPORT FREQUENCIES
Type APP Name APP Frequency 124.3 MHZ
Type ATIS Name ATIS Frequency 126.45 MHZ
Type TWR Name TWR Frequency 118.1 MHZ

 AIRPORT NEAR NAVIGATION AIDS
Type NDB Name Bloemfontein Frequency 380 KHZ
Type VORTAC Name Bloemfontein Frequency 114100 KHZ



The South Africal Virtual Air Force